Iver Bright — ZDKU4 — position and weather

sailwx.info

Track history (hours):
 
Tides and Currents Weather Stations Pressure Air Temp Water Temp Dewpoint Dewpoint Depression Visibility Wind Speed Wind Dir Waves Ship Positions

Iver Bright

Last reported at 2017-Jun-27 15:02 UTC. Time now 2017-Jun-28 05:36 UTC.
Position N 37°13' E 015°13'.

Length 111 m; draft 5.2 m.

Type: Tanker. MMSI: 236111811.

Date/timePositionNaut miles runAvg speedWind from/ knotsBaromVisibWave heightAir tempDewpointWater temp
2017-Jun-27 15:02N 37°13' E 015°13'0 0.0
2017-Jun-27 14:53N 37°13' E 015°13'0 0.1
2017-Jun-27 13:50N 37°13' E 015°13'0 0.0
2017-Jun-27 13:26N 37°13' E 015°13'0 0.0
2017-Jun-27 12:59N 37°13' E 015°13'0 0.0
2017-Jun-27 12:29N 37°13' E 015°13'0 0.0
2017-Jun-27 11:59N 37°13' E 015°13'  
2017-Jun-23 00:12N 37°05' E 015°25'312.9
2017-Jun-23 00:00N 37°02' E 015°25'712.9
2017-Jun-22 23:30N 36°56' E 015°25'612.2
2017-Jun-22 23:00N 36°50' E 015°22'611.9
2017-Jun-22 22:30N 36°44' E 015°20'611.9
2017-Jun-22 22:00N 36°39' E 015°17'510.9
2017-Jun-22 21:30N 36°34' E 015°14'611.6
2017-Jun-22 21:00N 36°32' E 015°07'611.8
2017-Jun-22 20:29N 36°31' E 014°60'612.1
2017-Jun-22 20:00N 36°30' E 014°53'612.5
2017-Jun-22 19:30N 36°28' E 014°45'612.2
2017-Jun-22 19:00N 36°27' E 014°38'612.5
2017-Jun-22 18:30N 36°29' E 014°30'612.5
2017-Jun-22 18:00N 36°32' E 014°23'612.5
2017-Jun-22 17:30N 36°34' E 014°16'612.5
2017-Jun-22 17:00N 36°37' E 014°09'612.6
2017-Jun-22 16:30N 36°39' E 014°02'612.7
2017-Jun-22 16:00N 36°42' E 013°54'613.0
2017-Jun-22 15:30N 36°44' E 013°47'713.0
2017-Jun-22 15:00N 36°47' E 013°39'713.0
2017-Jun-22 14:30N 36°50' E 013°32'1413.6
2017-Jun-22 13:30N 36°55' E 013°17'713.5
2017-Jun-22 13:00N 36°58' E 013°09'713.5
2017-Jun-22 12:30N 37°00' E 013°01'713.5
2017-Jun-22 12:00N 37°03' E 012°53'713.7
2017-Jun-22 11:30N 37°06' E 012°45'713.3
2017-Jun-22 11:00N 37°09' E 012°38'713.3
2017-Jun-22 10:30N 37°13' E 012°31'714.0
2017-Jun-22 10:00N 37°17' E 012°24'713.9
2017-Jun-22 09:30N 37°21' E 012°17'714.1
2017-Jun-22 09:00N 37°25' E 012°09'713.8
2017-Jun-22 08:30N 37°29' E 012°02'713.4
2017-Jun-22 08:00N 37°32' E 011°55'713.3
2017-Jun-22 07:30N 37°36' E 011°48'713.2
2017-Jun-22 07:00N 37°40' E 011°41'612.6
2017-Jun-22 06:30N 37°43' E 011°35'612.3
2017-Jun-22 06:01N 37°47' E 011°28'612.4
2017-Jun-22 05:30N 37°50' E 011°22'712.4
2017-Jun-22 04:57N 37°54' E 011°15'612.7
2017-Jun-22 04:30N 37°57' E 011°09'612.3
2017-Jun-22 04:00N 37°60' E 011°01'612.3
2017-Jun-22 03:30N 38°01' E 010°54'612.3
2017-Jun-22 03:00N 38°04' E 010°47'612.2
2017-Jun-22 02:29N 38°06' E 010°39'912.2
2017-Jun-22 01:46N 38°09' E 010°29'412.0
2017-Jun-22 01:28N 38°10' E 010°24'612.4
2017-Jun-22 01:00N 38°12' E 010°17'612.7
2017-Jun-22 00:30N 38°14' E 010°10'1012.8
2017-Jun-21 23:44N 38°17' E 009°58'1212.5
2017-Jun-21 22:46N 38°21' E 009°43'412.5
2017-Jun-21 22:27N 38°22' E 009°38'1112.7
2017-Jun-21 21:35N 38°25' E 009°25'112.6
2017-Jun-21 21:30N 38°26' E 009°24'2712.6
2017-Jun-21 19:21N 38°34' E 008°51'412.6
2017-Jun-21 19:00N 38°35' E 008°45'612.8
2017-Jun-21 18:30N 38°37' E 008°38'2812.5
2017-Jun-21 16:15N 38°56' E 008°10'9812.9
2017-Jun-21 08:38N 40°21' E 007°06'812.4
2017-Jun-21 08:00N 40°28' E 007°01'612.6
2017-Jun-21 07:30N 40°33' E 006°57'612.8
2017-Jun-21 07:00N 40°39' E 006°53'913.1
2017-Jun-21 06:20N 40°46' E 006°47'412.9
2017-Jun-21 06:00N 40°50' E 006°45'1413.1
2017-Jun-21 04:56N 41°03' E 006°36'1313.2
2017-Jun-21 03:57N 41°14' E 006°28'713.2
2017-Jun-21 03:24N 41°21' E 006°24'1413.2
2017-Jun-21 02:20N 41°33' E 006°15'413.0
2017-Jun-21 02:00N 41°36' E 006°11'1812.8
2017-Jun-21 00:38N 41°52' E 006°00'313.0
2017-Jun-21 00:25N 41°54' E 005°58'512.8
2017-Jun-21 00:00N 41°59' E 005°55'613.1
2017-Jun-20 23:31N 42°05' E 005°51'713.1
2017-Jun-20 23:00N 42°11' E 005°47'713.2
2017-Jun-20 22:28N 42°17' E 005°42'613.2
2017-Jun-20 22:00N 42°22' E 005°38'713.3
2017-Jun-20 21:31N 42°28' E 005°33'713.1
2017-Jun-20 21:00N 42°33' E 005°29'712.7
2017-Jun-20 20:29N 42°39' E 005°25'812.8
2017-Jun-20 19:52N 42°46' E 005°20'1912.6
2017-Jun-20 18:22N 43°03' E 005°08'612.1
2017-Jun-20 17:52N 43°08' E 005°04'11 8.9
2017-Jun-20 16:36N 43°19' E 004°59'211.3
2017-Jun-20 16:26N 43°21' E 004°58'3 8.1
2017-Jun-20 16:00N 43°24' E 004°60'0 0.5
2017-Jun-20 15:30N 43°24' E 004°60'0 0.0
2017-Jun-20 14:57N 43°24' E 004°60'0 0.0
2017-Jun-20 13:57N 43°24' E 004°60'0 0.0
2017-Jun-20 13:30N 43°24' E 004°60'0 0.0
2017-Jun-20 12:57N 43°24' E 004°60'0 0.0
2017-Jun-20 12:27N 43°24' E 004°60'0 0.0
2017-Jun-20 11:57N 43°24' E 004°60'0 0.0
2017-Jun-20 11:30N 43°24' E 004°60'0 0.0
2017-Jun-20 10:51N 43°24' E 004°60'0 0.0
2017-Jun-20 10:27N 43°24' E 004°60'0 0.0
2017-Jun-20 10:00N 43°24' E 004°60'0 0.0
2017-Jun-20 09:30N 43°24' E 004°60'0 0.0
2017-Jun-20 08:57N 43°24' E 004°60'0 0.0
2017-Jun-20 08:30N 43°24' E 004°60'0 0.0
2017-Jun-20 08:00N 43°24' E 004°60'0 0.0
2017-Jun-20 07:30N 43°24' E 004°60'0 0.0
2017-Jun-20 07:00N 43°24' E 004°60'0 0.0
2017-Jun-20 06:27N 43°24' E 004°60'0 0.0
2017-Jun-20 06:00N 43°24' E 004°60'0 0.0
2017-Jun-20 05:30N 43°24' E 004°60'0 0.0
2017-Jun-20 05:00N 43°24' E 004°60'0 0.0
2017-Jun-20 04:24N 43°24' E 004°60'0 0.0
2017-Jun-20 03:57N 43°24' E 004°60'0 0.0
2017-Jun-20 03:30N 43°24' E 004°60'0 0.0
2017-Jun-20 02:57N 43°24' E 004°60'0 0.0
2017-Jun-20 02:27N 43°24' E 004°60'0 0.0
2017-Jun-20 02:00N 43°24' E 004°60'0 0.0
2017-Jun-20 01:30N 43°24' E 004°60'0 0.0
2017-Jun-20 00:57N 43°24' E 004°60'0 0.0
2017-Jun-20 00:27N 43°24' E 004°60'0 0.0
2017-Jun-19 23:57N 43°24' E 004°60'0 0.0
2017-Jun-19 23:30N 43°24' E 004°60'0 0.0
2017-Jun-19 22:57N 43°24' E 004°60'0 0.0
2017-Jun-19 22:27N 43°24' E 004°60'0 0.0
2017-Jun-19 21:57N 43°24' E 004°60'0 0.0
2017-Jun-19 21:27N 43°24' E 004°60'0 0.0
2017-Jun-19 20:57N 43°24' E 004°60'0 0.0
2017-Jun-19 20:30N 43°24' E 004°60'0 0.0
2017-Jun-19 20:00N 43°24' E 004°60'0 0.0
2017-Jun-19 19:30N 43°24' E 004°60'1 1.8
2017-Jun-19 19:00N 43°24' E 004°59'1 1.6
2017-Jun-19 18:25N 43°24' E 004°58'0 0.0
2017-Jun-19 17:58N 43°24' E 004°58'0 0.0
2017-Jun-19 17:22N 43°24' E 004°58'0 0.0
2017-Jun-19 16:58N 43°24' E 004°58'0 0.0
2017-Jun-19 16:28N 43°24' E 004°58'0 0.0
2017-Jun-19 15:58N 43°24' E 004°58'0 0.0
2017-Jun-19 15:28N 43°24' E 004°58'0 0.0
2017-Jun-19 14:58N 43°24' E 004°58'0 0.0
2017-Jun-19 14:28N 43°24' E 004°58'0 0.1
2017-Jun-19 13:30N 43°24' E 004°58'4 7.8
2017-Jun-19 13:00N 43°20' E 004°59'9 9.2
2017-Jun-19 11:59N 43°11' E 005°03'511.0
2017-Jun-19 11:30N 43°06' E 005°07'611.5
2017-Jun-19 11:00N 43°01' E 005°10'2712.1
2017-Jun-19 08:46N 42°37' E 005°28'2512.0
2017-Jun-19 06:40N 42°15' E 005°44'29511.3
2017-Jun-18 04:32N 38°21' E 009°40'111.9
2017-Jun-18 04:28N 38°21' E 009°41'911.8
2017-Jun-18 03:41N 38°18' E 009°52'211.8
2017-Jun-18 03:29N 38°18' E 009°55'911.7
2017-Jun-18 02:41N 38°15' E 010°07'411.7
2017-Jun-18 02:21N 38°13' E 010°11'8911.5
2017-Jun-17 18:36N 37°34' E 011°53'611.7
2017-Jun-17 18:04N 37°30' E 011°59'111.6
2017-Jun-17 17:59N 37°30' E 012°00'611.5
2017-Jun-17 17:30N 37°27' E 012°06'611.1
2017-Jun-17 17:00N 37°23' E 012°12'511.1
2017-Jun-17 16:30N 37°20' E 012°17'510.9
2017-Jun-17 16:00N 37°17' E 012°23'611.2
2017-Jun-17 15:30N 37°14' E 012°29'  
Track history (hours):
 
Tides and Currents Weather Stations Pressure Air Temp Water Temp Dewpoint Dewpoint Depression Visibility Wind Speed Wind Dir Waves Ship Positions

Iver Bright

Last reported at 2017-Jun-27 15:02 UTC. Time now 2017-Jun-28 05:36 UTC.
Position N 37°13' E 015°13'.

Length 111 m; draft 5.2 m.

Type: Tanker. MMSI: 236111811.

Date/timePositionNaut miles runAvg speedWind from/ knotsBaromVisibWave heightAir tempDewpointWater temp
2017-Jun-27 15:02N 37°13' E 015°13'0 0.0
2017-Jun-27 14:53N 37°13' E 015°13'0 0.1
2017-Jun-27 13:50N 37°13' E 015°13'0 0.0
2017-Jun-27 13:26N 37°13' E 015°13'0 0.0
2017-Jun-27 12:59N 37°13' E 015°13'0 0.0
2017-Jun-27 12:29N 37°13' E 015°13'0 0.0
2017-Jun-27 11:59N 37°13' E 015°13'  
2017-Jun-23 00:12N 37°05' E 015°25'312.9
2017-Jun-23 00:00N 37°02' E 015°25'712.9
2017-Jun-22 23:30N 36°56' E 015°25'612.2
2017-Jun-22 23:00N 36°50' E 015°22'611.9
2017-Jun-22 22:30N 36°44' E 015°20'611.9
2017-Jun-22 22:00N 36°39' E 015°17'510.9
2017-Jun-22 21:30N 36°34' E 015°14'611.6
2017-Jun-22 21:00N 36°32' E 015°07'611.8
2017-Jun-22 20:29N 36°31' E 014°60'612.1
2017-Jun-22 20:00N 36°30' E 014°53'612.5
2017-Jun-22 19:30N 36°28' E 014°45'612.2
2017-Jun-22 19:00N 36°27' E 014°38'612.5
2017-Jun-22 18:30N 36°29' E 014°30'612.5
2017-Jun-22 18:00N 36°32' E 014°23'612.5
2017-Jun-22 17:30N 36°34' E 014°16'612.5
2017-Jun-22 17:00N 36°37' E 014°09'612.6
2017-Jun-22 16:30N 36°39' E 014°02'612.7
2017-Jun-22 16:00N 36°42' E 013°54'613.0
2017-Jun-22 15:30N 36°44' E 013°47'713.0
2017-Jun-22 15:00N 36°47' E 013°39'713.0
2017-Jun-22 14:30N 36°50' E 013°32'1413.6
2017-Jun-22 13:30N 36°55' E 013°17'713.5
2017-Jun-22 13:00N 36°58' E 013°09'713.5
2017-Jun-22 12:30N 37°00' E 013°01'713.5
2017-Jun-22 12:00N 37°03' E 012°53'713.7
2017-Jun-22 11:30N 37°06' E 012°45'713.3
2017-Jun-22 11:00N 37°09' E 012°38'713.3
2017-Jun-22 10:30N 37°13' E 012°31'714.0
2017-Jun-22 10:00N 37°17' E 012°24'713.9
2017-Jun-22 09:30N 37°21' E 012°17'714.1
2017-Jun-22 09:00N 37°25' E 012°09'713.8
2017-Jun-22 08:30N 37°29' E 012°02'713.4
2017-Jun-22 08:00N 37°32' E 011°55'713.3
2017-Jun-22 07:30N 37°36' E 011°48'713.2
2017-Jun-22 07:00N 37°40' E 011°41'612.6
2017-Jun-22 06:30N 37°43' E 011°35'612.3
2017-Jun-22 06:01N 37°47' E 011°28'612.4
2017-Jun-22 05:30N 37°50' E 011°22'712.4
2017-Jun-22 04:57N 37°54' E 011°15'612.7
2017-Jun-22 04:30N 37°57' E 011°09'612.3
2017-Jun-22 04:00N 37°60' E 011°01'612.3
2017-Jun-22 03:30N 38°01' E 010°54'612.3
2017-Jun-22 03:00N 38°04' E 010°47'612.2
2017-Jun-22 02:29N 38°06' E 010°39'912.2
2017-Jun-22 01:46N 38°09' E 010°29'412.0
2017-Jun-22 01:28N 38°10' E 010°24'612.4
2017-Jun-22 01:00N 38°12' E 010°17'612.7
2017-Jun-22 00:30N 38°14' E 010°10'1012.8
2017-Jun-21 23:44N 38°17' E 009°58'1212.5
2017-Jun-21 22:46N 38°21' E 009°43'412.5
2017-Jun-21 22:27N 38°22' E 009°38'1112.7
2017-Jun-21 21:35N 38°25' E 009°25'112.6
2017-Jun-21 21:30N 38°26' E 009°24'2712.6
2017-Jun-21 19:21N 38°34' E 008°51'412.6
2017-Jun-21 19:00N 38°35' E 008°45'612.8
2017-Jun-21 18:30N 38°37' E 008°38'2812.5
2017-Jun-21 16:15N 38°56' E 008°10'9812.9
2017-Jun-21 08:38N 40°21' E 007°06'812.4
2017-Jun-21 08:00N 40°28' E 007°01'612.6
2017-Jun-21 07:30N 40°33' E 006°57'612.8
2017-Jun-21 07:00N 40°39' E 006°53'913.1
2017-Jun-21 06:20N 40°46' E 006°47'412.9
2017-Jun-21 06:00N 40°50' E 006°45'1413.1
2017-Jun-21 04:56N 41°03' E 006°36'1313.2
2017-Jun-21 03:57N 41°14' E 006°28'713.2
2017-Jun-21 03:24N 41°21' E 006°24'1413.2
2017-Jun-21 02:20N 41°33' E 006°15'413.0
2017-Jun-21 02:00N 41°36' E 006°11'1812.8
2017-Jun-21 00:38N 41°52' E 006°00'313.0
2017-Jun-21 00:25N 41°54' E 005°58'512.8
2017-Jun-21 00:00N 41°59' E 005°55'613.1
2017-Jun-20 23:31N 42°05' E 005°51'713.1
2017-Jun-20 23:00N 42°11' E 005°47'713.2
2017-Jun-20 22:28N 42°17' E 005°42'613.2
2017-Jun-20 22:00N 42°22' E 005°38'713.3
2017-Jun-20 21:31N 42°28' E 005°33'713.1
2017-Jun-20 21:00N 42°33' E 005°29'712.7
2017-Jun-20 20:29N 42°39' E 005°25'812.8
2017-Jun-20 19:52N 42°46' E 005°20'1912.6
2017-Jun-20 18:22N 43°03' E 005°08'612.1
2017-Jun-20 17:52N 43°08' E 005°04'11 8.9
2017-Jun-20 16:36N 43°19' E 004°59'211.3
2017-Jun-20 16:26N 43°21' E 004°58'3 8.1
2017-Jun-20 16:00N 43°24' E 004°60'0 0.5
2017-Jun-20 15:30N 43°24' E 004°60'0 0.0
2017-Jun-20 14:57N 43°24' E 004°60'0 0.0
2017-Jun-20 13:57N 43°24' E 004°60'0 0.0
2017-Jun-20 13:30N 43°24' E 004°60'0 0.0
2017-Jun-20 12:57N 43°24' E 004°60'0 0.0
2017-Jun-20 12:27N 43°24' E 004°60'0 0.0
2017-Jun-20 11:57N 43°24' E 004°60'0 0.0
2017-Jun-20 11:30N 43°24' E 004°60'0 0.0
2017-Jun-20 10:51N 43°24' E 004°60'0 0.0
2017-Jun-20 10:27N 43°24' E 004°60'0 0.0
2017-Jun-20 10:00N 43°24' E 004°60'0 0.0
2017-Jun-20 09:30N 43°24' E 004°60'0 0.0
2017-Jun-20 08:57N 43°24' E 004°60'0 0.0
2017-Jun-20 08:30N 43°24' E 004°60'0 0.0
2017-Jun-20 08:00N 43°24' E 004°60'0 0.0
2017-Jun-20 07:30N 43°24' E 004°60'0 0.0
2017-Jun-20 07:00N 43°24' E 004°60'0 0.0
2017-Jun-20 06:27N 43°24' E 004°60'0 0.0
2017-Jun-20 06:00N 43°24' E 004°60'0 0.0
2017-Jun-20 05:30N 43°24' E 004°60'0 0.0
2017-Jun-20 05:00N 43°24' E 004°60'0 0.0
2017-Jun-20 04:24N 43°24' E 004°60'0 0.0
2017-Jun-20 03:57N 43°24' E 004°60'0 0.0
2017-Jun-20 03:30N 43°24' E 004°60'0 0.0
2017-Jun-20 02:57N 43°24' E 004°60'0 0.0
2017-Jun-20 02:27N 43°24' E 004°60'0 0.0
2017-Jun-20 02:00N 43°24' E 004°60'0 0.0
2017-Jun-20 01:30N 43°24' E 004°60'0 0.0
2017-Jun-20 00:57N 43°24' E 004°60'0 0.0
2017-Jun-20 00:27N 43°24' E 004°60'0 0.0
2017-Jun-19 23:57N 43°24' E 004°60'0 0.0
2017-Jun-19 23:30N 43°24' E 004°60'0 0.0
2017-Jun-19 22:57N 43°24' E 004°60'0 0.0
2017-Jun-19 22:27N 43°24' E 004°60'0 0.0
2017-Jun-19 21:57N 43°24' E 004°60'0 0.0
2017-Jun-19 21:27N 43°24' E 004°60'0 0.0
2017-Jun-19 20:57N 43°24' E 004°60'0 0.0
2017-Jun-19 20:30N 43°24' E 004°60'0 0.0
2017-Jun-19 20:00N 43°24' E 004°60'0 0.0
2017-Jun-19 19:30N 43°24' E 004°60'1 1.8
2017-Jun-19 19:00N 43°24' E 004°59'1 1.6
2017-Jun-19 18:25N 43°24' E 004°58'0 0.0
2017-Jun-19 17:58N 43°24' E 004°58'0 0.0
2017-Jun-19 17:22N 43°24' E 004°58'0 0.0
2017-Jun-19 16:58N 43°24' E 004°58'0 0.0
2017-Jun-19 16:28N 43°24' E 004°58'0 0.0
2017-Jun-19 15:58N 43°24' E 004°58'0 0.0
2017-Jun-19 15:28N 43°24' E 004°58'0 0.0
2017-Jun-19 14:58N 43°24' E 004°58'0 0.0
2017-Jun-19 14:28N 43°24' E 004°58'0 0.1
2017-Jun-19 13:30N 43°24' E 004°58'4 7.8
2017-Jun-19 13:00N 43°20' E 004°59'9 9.2
2017-Jun-19 11:59N 43°11' E 005°03'511.0
2017-Jun-19 11:30N 43°06' E 005°07'611.5
2017-Jun-19 11:00N 43°01' E 005°10'2712.1
2017-Jun-19 08:46N 42°37' E 005°28'2512.0
2017-Jun-19 06:40N 42°15' E 005°44'29511.3
2017-Jun-18 04:32N 38°21' E 009°40'111.9
2017-Jun-18 04:28N 38°21' E 009°41'911.8
2017-Jun-18 03:41N 38°18' E 009°52'211.8
2017-Jun-18 03:29N 38°18' E 009°55'911.7
2017-Jun-18 02:41N 38°15' E 010°07'411.7
2017-Jun-18 02:21N 38°13' E 010°11'8911.5
2017-Jun-17 18:36N 37°34' E 011°53'611.7
2017-Jun-17 18:04N 37°30' E 011°59'111.6
2017-Jun-17 17:59N 37°30' E 012°00'611.5
2017-Jun-17 17:30N 37°27' E 012°06'611.1
2017-Jun-17 17:00N 37°23' E 012°12'511.1
2017-Jun-17 16:30N 37°20' E 012°17'510.9
2017-Jun-17 16:00N 37°17' E 012°23'611.2
2017-Jun-17 15:30N 37°14' E 012°29'  

Dump ship's entire track history